EZY75PF LGIR-EGKK
Flight info
| Callsign | EZY75PF |
|---|---|
| Flight time | N/A |
| Altitude | 34000 |
| Route | EPALO M749 DIRMI UL613 KOR DCT DIMIS DCT VAKSU DCT SPL DCT ROTAR DCT RESIA DCT ELMUR L613 HOC DCT LUL DCT RLP DCT ROTSI DCT KOTUN DCT NINAL DCT KESAX DCT KUNAV |
| Aircraft | A320/M-SDE2E3FGHIRWXY/LB1 |
Departure
| Time | 2026-05-04 09:46 |
|---|---|
| Airport | Heraklion International Nikos Kazantzakis Airport (LGIR) |
Arrival
| Time | N/A |
|---|---|
| Airport | London Gatwick Airport (EGKK) |
| Time | Latitude | Longitude | Altitude | Speed | Heading |
|---|---|---|---|---|---|
| 2026-05-04 09:23 | 35.33867 | 25.17551 | 85 ft | 0 kts | 321° |
| 2026-05-04 09:40 | 35.33872 | 25.17546 | 89 ft | 6 kts | 319° |
| 2026-05-04 09:40 | 35.33901 | 25.17531 | 88 ft | 3 kts | 30° |
| 2026-05-04 09:40 | 35.33904 | 25.17544 | 88 ft | 4 kts | 80° |
| 2026-05-04 09:41 | 35.33904 | 25.17585 | 87 ft | 6 kts | 90° |
| 2026-05-04 09:42 | 35.33834 | 25.18568 | 90 ft | 26 kts | 94° |
| 2026-05-04 09:43 | 35.33823 | 25.18802 | 87 ft | 25 kts | 92° |
| 2026-05-04 09:43 | 35.33828 | 25.18954 | 88 ft | 13 kts | 67° |
| 2026-05-04 09:43 | 35.33906 | 25.19001 | 85 ft | 12 kts | 329° |
| 2026-05-04 09:43 | 35.33913 | 25.18977 | 82 ft | 0 kts | 275° |
| 2026-05-04 09:44 | 35.33915 | 25.18930 | 83 ft | 26 kts | 274° |
| 2026-05-04 09:44 | 35.33948 | 25.18398 | 86 ft | 95 kts | 275° |
| 2026-05-04 09:44 | 35.34020 | 25.17361 | 86 ft | 148 kts | 275° |
| 2026-05-04 09:46 | 35.40809 | 25.12075 | 3335 ft | 237 kts | 342° |
| 2026-05-04 09:46 | 35.42402 | 25.11514 | 4159 ft | 240 kts | 342° |
| 2026-05-04 09:46 | 35.44017 | 25.10939 | 4984 ft | 243 kts | 342° |
| 2026-05-04 09:47 | 35.45648 | 25.10355 | 5776 ft | 246 kts | 342° |
| 2026-05-04 09:47 | 35.47299 | 25.09763 | 6565 ft | 249 kts | 342° |
| 2026-05-04 09:49 | 35.59616 | 25.05340 | 10745 ft | 304 kts | 342° |
| 2026-05-04 09:49 | 35.61674 | 25.04596 | 11254 ft | 311 kts | 342° |
| 2026-05-04 09:49 | 35.63767 | 25.03844 | 11867 ft | 316 kts | 342° |
| 2026-05-04 09:51 | 35.76750 | 24.98715 | 15477 ft | 334 kts | 337° |
| 2026-05-04 09:51 | 35.78912 | 24.97661 | 16097 ft | 335 kts | 336° |
| 2026-05-04 09:51 | 35.81082 | 24.96602 | 16706 ft | 336 kts | 337° |
| 2026-05-04 09:51 | 35.83265 | 24.95547 | 17297 ft | 337 kts | 337° |
| 2026-05-04 09:52 | 35.85427 | 24.94512 | 17875 ft | 339 kts | 337° |
| 2026-05-04 09:52 | 35.87660 | 24.93451 | 18465 ft | 340 kts | 337° |
| 2026-05-04 09:52 | 35.89873 | 24.92405 | 18960 ft | 341 kts | 337° |
| 2026-05-04 09:52 | 35.92092 | 24.91359 | 19450 ft | 342 kts | 337° |
| 2026-05-04 09:53 | 35.94319 | 24.90309 | 19974 ft | 343 kts | 336° |
| 2026-05-04 09:53 | 35.96548 | 24.89259 | 20471 ft | 343 kts | 336° |
| 2026-05-04 09:53 | 35.98783 | 24.88210 | 20982 ft | 344 kts | 336° |
| 2026-05-04 09:53 | 36.01018 | 24.87156 | 21479 ft | 344 kts | 336° |
| 2026-05-04 09:54 | 36.03254 | 24.86097 | 21966 ft | 345 kts | 336° |
| 2026-05-04 09:54 | 36.05439 | 24.84897 | 22440 ft | 343 kts | 328° |
| 2026-05-04 09:54 | 36.07396 | 24.83221 | 22900 ft | 342 kts | 320° |
| 2026-05-04 09:54 | 36.09250 | 24.81370 | 23363 ft | 343 kts | 320° |
| 2026-05-04 09:55 | 36.11112 | 24.79522 | 23810 ft | 343 kts | 320° |
| 2026-05-04 09:55 | 36.12953 | 24.77701 | 24179 ft | 344 kts | 320° |
| 2026-05-04 09:55 | 36.14829 | 24.75847 | 24528 ft | 346 kts | 320° |
| 2026-05-04 09:55 | 36.16709 | 24.73986 | 24866 ft | 347 kts | 320° |
| 2026-05-04 09:56 | 36.18596 | 24.72112 | 25196 ft | 349 kts | 320° |
| 2026-05-04 09:56 | 36.20492 | 24.70228 | 25518 ft | 350 kts | 320° |
| 2026-05-04 09:56 | 36.22395 | 24.68338 | 25834 ft | 352 kts | 320° |
| 2026-05-04 09:56 | 36.24308 | 24.66436 | 26153 ft | 353 kts | 320° |
| 2026-05-04 09:57 | 36.26227 | 24.64527 | 26460 ft | 355 kts | 320° |
| 2026-05-04 09:57 | 36.28156 | 24.62603 | 26771 ft | 356 kts | 320° |
| 2026-05-04 09:57 | 36.30090 | 24.60672 | 27077 ft | 358 kts | 320° |
| 2026-05-04 09:57 | 36.32036 | 24.58731 | 27367 ft | 360 kts | 320° |
| 2026-05-04 09:58 | 36.33994 | 24.56780 | 27658 ft | 362 kts | 320° |
| 2026-05-04 09:58 | 36.35960 | 24.54817 | 27954 ft | 364 kts | 320° |
| 2026-05-04 09:58 | 36.37931 | 24.52844 | 28242 ft | 365 kts | 320° |
| 2026-05-04 10:00 | 36.51998 | 24.38748 | 30098 ft | 377 kts | 320° |
| 2026-05-04 10:00 | 36.54038 | 24.36694 | 30325 ft | 378 kts | 320° |
| 2026-05-04 10:02 | 36.68324 | 24.22301 | 32138 ft | 378 kts | 320° |
| 2026-05-04 10:04 | 36.82562 | 24.07872 | 33901 ft | 378 kts | 321° |
| 2026-05-04 10:04 | 36.84602 | 24.05801 | 34119 ft | 378 kts | 321° |
| 2026-05-04 10:04 | 36.86639 | 24.03730 | 34196 ft | 376 kts | 321° |
| 2026-05-04 10:05 | 36.90676 | 23.99622 | 34200 ft | 373 kts | 321° |
| 2026-05-04 10:05 | 36.94692 | 23.95528 | 34204 ft | 373 kts | 321° |
| 2026-05-04 10:06 | 36.98712 | 23.91431 | 34201 ft | 373 kts | 321° |
| 2026-05-04 10:06 | 37.02734 | 23.87330 | 34206 ft | 373 kts | 321° |
| 2026-05-04 10:08 | 37.16152 | 23.73592 | 34200 ft | 373 kts | 321° |
| 2026-05-04 10:08 | 37.20172 | 23.69463 | 34201 ft | 374 kts | 321° |
| 2026-05-04 10:09 | 37.24192 | 23.65333 | 34199 ft | 374 kts | 321° |
| 2026-05-04 10:09 | 37.28188 | 23.61225 | 34204 ft | 374 kts | 321° |
| 2026-05-04 10:10 | 37.32206 | 23.57083 | 34201 ft | 374 kts | 321° |
| 2026-05-04 10:10 | 37.36223 | 23.52932 | 34197 ft | 374 kts | 321° |
| 2026-05-04 10:11 | 37.40239 | 23.48774 | 34191 ft | 374 kts | 321° |
| 2026-05-04 10:11 | 37.44255 | 23.44611 | 34194 ft | 374 kts | 321° |
| 2026-05-04 10:12 | 37.48273 | 23.40447 | 34189 ft | 375 kts | 321° |
| 2026-05-04 10:12 | 37.52295 | 23.36269 | 34193 ft | 375 kts | 321° |
| 2026-05-04 10:13 | 37.56313 | 23.32088 | 34189 ft | 375 kts | 321° |
| 2026-05-04 10:13 | 37.60331 | 23.27898 | 34195 ft | 375 kts | 321° |
| 2026-05-04 10:14 | 37.64354 | 23.23706 | 34193 ft | 375 kts | 321° |
| 2026-05-04 10:16 | 37.80446 | 23.06845 | 34183 ft | 376 kts | 321° |
| 2026-05-04 10:16 | 37.84479 | 23.02610 | 34187 ft | 377 kts | 321° |
| 2026-05-04 10:17 | 37.88513 | 22.98370 | 34179 ft | 377 kts | 321° |
| 2026-05-04 10:19 | 38.04664 | 22.81377 | 34188 ft | 377 kts | 322° |
| 2026-05-04 10:19 | 38.08678 | 22.77155 | 34187 ft | 378 kts | 322° |
| 2026-05-04 10:20 | 38.12720 | 22.72892 | 34184 ft | 378 kts | 322° |
| 2026-05-04 10:20 | 38.16756 | 22.68617 | 34189 ft | 378 kts | 322° |
| 2026-05-04 10:21 | 38.20792 | 22.64339 | 34185 ft | 378 kts | 322° |
| 2026-05-04 10:21 | 38.24830 | 22.60057 | 34188 ft | 378 kts | 322° |
| 2026-05-04 10:22 | 38.30891 | 22.53619 | 34188 ft | 379 kts | 322° |
| 2026-05-04 10:23 | 38.34927 | 22.49312 | 34180 ft | 379 kts | 322° |
| 2026-05-04 10:25 | 38.51096 | 22.32027 | 34168 ft | 380 kts | 322° |
| 2026-05-04 10:25 | 38.55150 | 22.27675 | 34178 ft | 380 kts | 322° |
| 2026-05-04 10:26 | 38.59203 | 22.23323 | 34169 ft | 381 kts | 322° |
| 2026-05-04 10:26 | 38.63256 | 22.18958 | 34182 ft | 381 kts | 322° |
| 2026-05-04 10:27 | 38.67307 | 22.14590 | 34175 ft | 381 kts | 322° |
| 2026-05-04 10:27 | 38.71360 | 22.10221 | 34188 ft | 381 kts | 322° |
| 2026-05-04 10:28 | 38.75410 | 22.05839 | 34182 ft | 381 kts | 322° |
| 2026-05-04 10:28 | 38.79426 | 22.01478 | 34188 ft | 381 kts | 322° |
| 2026-05-04 10:29 | 38.83469 | 21.97100 | 34178 ft | 380 kts | 322° |
| 2026-05-04 10:29 | 38.87511 | 21.92717 | 34189 ft | 380 kts | 322° |
| 2026-05-04 10:30 | 38.91547 | 21.88330 | 34186 ft | 380 kts | 322° |
| 2026-05-04 10:30 | 38.95573 | 21.83942 | 34185 ft | 379 kts | 322° |
| 2026-05-04 10:31 | 38.99599 | 21.79552 | 34179 ft | 380 kts | 322° |
| 2026-05-04 10:32 | 39.13652 | 21.64160 | 34176 ft | 378 kts | 322° |
| 2026-05-04 10:33 | 39.17654 | 21.59750 | 34164 ft | 378 kts | 322° |
| 2026-05-04 10:33 | 39.21662 | 21.55346 | 34168 ft | 378 kts | 323° |
| 2026-05-04 10:34 | 39.25667 | 21.50929 | 34172 ft | 379 kts | 322° |
| 2026-05-04 10:34 | 39.29668 | 21.46511 | 34183 ft | 378 kts | 322° |
| 2026-05-04 10:35 | 39.33665 | 21.42105 | 34177 ft | 377 kts | 323° |
| 2026-05-04 10:35 | 39.37648 | 21.37694 | 34179 ft | 377 kts | 323° |
| 2026-05-04 10:36 | 39.41630 | 21.33282 | 34172 ft | 377 kts | 323° |
| 2026-05-04 10:36 | 39.45610 | 21.28859 | 34181 ft | 378 kts | 323° |
| 2026-05-04 10:37 | 39.49592 | 21.24433 | 34165 ft | 377 kts | 323° |
| 2026-05-04 10:37 | 39.53572 | 21.20002 | 34168 ft | 377 kts | 323° |
| 2026-05-04 10:39 | 39.67463 | 21.04462 | 34171 ft | 378 kts | 323° |
| 2026-05-04 10:40 | 39.71439 | 20.99996 | 34169 ft | 377 kts | 323° |
| 2026-05-04 10:40 | 39.75406 | 20.95534 | 34174 ft | 377 kts | 323° |
| 2026-05-04 10:41 | 39.79375 | 20.91071 | 34174 ft | 377 kts | 323° |
| 2026-05-04 10:41 | 39.83337 | 20.86601 | 34176 ft | 377 kts | 323° |
| 2026-05-04 10:42 | 39.87296 | 20.82129 | 34168 ft | 377 kts | 323° |
| 2026-05-04 10:42 | 39.91253 | 20.77651 | 34171 ft | 377 kts | 323° |
| 2026-05-04 10:43 | 39.95211 | 20.73165 | 34159 ft | 377 kts | 323° |
| 2026-05-04 10:45 | 40.11108 | 20.55357 | 34153 ft | 375 kts | 326° |
| 2026-05-04 10:45 | 40.15240 | 20.51210 | 34156 ft | 375 kts | 327° |
| 2026-05-04 10:46 | 40.19373 | 20.47041 | 34148 ft | 375 kts | 326° |
| 2026-05-04 10:46 | 40.23452 | 20.42858 | 34153 ft | 376 kts | 326° |
| 2026-05-04 10:47 | 40.27550 | 20.38619 | 34151 ft | 375 kts | 326° |
| 2026-05-04 10:47 | 40.31643 | 20.34378 | 34155 ft | 375 kts | 326° |
| 2026-05-04 10:49 | 40.48031 | 20.17372 | 34150 ft | 376 kts | 326° |
| 2026-05-04 10:50 | 40.52129 | 20.13097 | 34143 ft | 376 kts | 326° |
| 2026-05-04 10:52 | 40.68546 | 19.95922 | 34143 ft | 377 kts | 326° |
| 2026-05-04 10:52 | 40.72628 | 19.91645 | 34147 ft | 378 kts | 326° |
| 2026-05-04 10:54 | 40.89080 | 19.74293 | 34141 ft | 379 kts | 326° |
| 2026-05-04 10:56 | 41.04936 | 19.57480 | 34146 ft | 382 kts | 326° |
| 2026-05-04 10:57 | 41.09050 | 19.53091 | 34146 ft | 382 kts | 326° |
| 2026-05-04 10:57 | 41.13190 | 19.48661 | 34155 ft | 383 kts | 326° |
| 2026-05-04 10:58 | 41.17341 | 19.44217 | 34149 ft | 383 kts | 326° |
| 2026-05-04 10:58 | 41.21501 | 19.39774 | 34157 ft | 384 kts | 326° |
| 2026-05-04 10:59 | 41.25661 | 19.35311 | 34153 ft | 385 kts | 326° |
| 2026-05-04 10:59 | 41.29825 | 19.30839 | 34156 ft | 385 kts | 326° |
| 2026-05-04 11:00 | 41.33993 | 19.26355 | 34155 ft | 386 kts | 326° |
| 2026-05-04 11:02 | 41.50711 | 19.08302 | 34165 ft | 388 kts | 326° |
| 2026-05-04 11:05 | 41.82149 | 18.73964 | 34153 ft | 391 kts | 325° |
| 2026-05-04 11:06 | 41.86357 | 18.69329 | 34151 ft | 392 kts | 325° |
| 2026-05-04 11:06 | 41.90546 | 18.64718 | 34149 ft | 392 kts | 325° |
| 2026-05-04 11:10 | 42.18136 | 18.28481 | 34168 ft | 399 kts | 317° |
| 2026-05-04 11:12 | 42.33201 | 18.06486 | 34173 ft | 399 kts | 317° |
| 2026-05-04 11:12 | 42.36964 | 18.00954 | 34172 ft | 399 kts | 317° |
| 2026-05-04 11:13 | 42.40728 | 17.95426 | 34173 ft | 399 kts | 317° |
| 2026-05-04 11:13 | 42.44491 | 17.89894 | 34171 ft | 400 kts | 316° |
| 2026-05-04 11:14 | 42.45127 | 17.88956 | 34170 ft | 400 kts | 316° |
| 2026-05-04 11:16 | 42.63224 | 17.62126 | 34171 ft | 400 kts | 316° |
| 2026-05-04 11:16 | 42.66971 | 17.56541 | 34166 ft | 400 kts | 316° |
| 2026-05-04 11:17 | 42.70714 | 17.50946 | 34167 ft | 400 kts | 316° |
| 2026-05-04 11:19 | 42.85693 | 17.28473 | 34163 ft | 401 kts | 315° |
| 2026-05-04 11:19 | 42.89436 | 17.22837 | 34153 ft | 401 kts | 315° |
| 2026-05-04 11:20 | 42.93180 | 17.17188 | 34155 ft | 402 kts | 315° |
| 2026-05-04 11:20 | 42.96927 | 17.11521 | 34161 ft | 402 kts | 315° |
| 2026-05-04 11:22 | 43.11903 | 16.88730 | 34145 ft | 403 kts | 314° |
| 2026-05-04 11:23 | 43.15650 | 16.83010 | 34149 ft | 404 kts | 314° |
| 2026-05-04 11:25 | 43.28740 | 16.62903 | 34146 ft | 404 kts | 313° |
| 2026-05-04 11:25 | 43.32477 | 16.57135 | 34152 ft | 405 kts | 313° |
| 2026-05-04 11:27 | 43.49278 | 16.31079 | 34161 ft | 405 kts | 313° |
| 2026-05-04 11:28 | 43.52852 | 16.25077 | 34164 ft | 406 kts | 309° |
| 2026-05-04 11:28 | 43.56266 | 16.18891 | 34164 ft | 405 kts | 309° |
| 2026-05-04 11:29 | 43.59674 | 16.12693 | 34160 ft | 405 kts | 309° |
| 2026-05-04 11:29 | 43.63095 | 16.06565 | 34160 ft | 406 kts | 309° |
| 2026-05-04 11:33 | 43.87169 | 15.63292 | 34158 ft | 405 kts | 309° |
| 2026-05-04 11:33 | 43.90594 | 15.57089 | 34157 ft | 405 kts | 308° |
| 2026-05-04 11:34 | 43.94014 | 15.50868 | 34103 ft | 405 kts | 308° |
| 2026-05-04 11:34 | 43.97433 | 15.44638 | 34147 ft | 406 kts | 307° |
| 2026-05-04 11:35 | 44.00857 | 15.38395 | 34160 ft | 406 kts | 307° |
| 2026-05-04 11:35 | 44.04274 | 15.32135 | 34164 ft | 407 kts | 307° |
| 2026-05-04 11:36 | 44.07690 | 15.25861 | 34169 ft | 407 kts | 307° |
| 2026-05-04 11:36 | 44.11112 | 15.19584 | 34166 ft | 407 kts | 307° |
| 2026-05-04 11:37 | 44.14527 | 15.13295 | 34162 ft | 407 kts | 307° |
| 2026-05-04 11:37 | 44.17942 | 15.06995 | 34156 ft | 408 kts | 307° |
| 2026-05-04 11:38 | 44.21360 | 15.00675 | 34157 ft | 408 kts | 306° |
| 2026-05-04 11:38 | 44.24775 | 14.94346 | 34154 ft | 408 kts | 306° |
| 2026-05-04 11:39 | 44.28187 | 14.88004 | 34148 ft | 409 kts | 306° |
| 2026-05-04 11:41 | 44.40137 | 14.65707 | 34142 ft | 410 kts | 306° |
| 2026-05-04 11:41 | 44.43547 | 14.59304 | 34139 ft | 410 kts | 306° |
| 2026-05-04 11:42 | 44.46954 | 14.52891 | 34137 ft | 411 kts | 306° |
| 2026-05-04 11:42 | 44.50361 | 14.46461 | 34137 ft | 411 kts | 306° |
| 2026-05-04 11:43 | 44.53198 | 14.41114 | 34135 ft | 411 kts | 306° |
| 2026-05-04 11:43 | 44.56609 | 14.34677 | 34138 ft | 412 kts | 306° |
| 2026-05-04 11:44 | 44.60014 | 14.28216 | 34134 ft | 412 kts | 306° |
| 2026-05-04 11:44 | 44.63416 | 14.21740 | 34133 ft | 412 kts | 306° |
| 2026-05-04 11:45 | 44.66822 | 14.15254 | 34136 ft | 413 kts | 306° |
| 2026-05-04 11:45 | 44.70232 | 14.08753 | 34133 ft | 413 kts | 305° |
| 2026-05-04 11:46 | 44.73636 | 14.02229 | 34133 ft | 414 kts | 305° |
| 2026-05-04 11:46 | 44.77037 | 13.95701 | 34138 ft | 414 kts | 305° |
| 2026-05-04 11:47 | 44.80445 | 13.89155 | 34137 ft | 415 kts | 305° |
| 2026-05-04 11:47 | 44.83851 | 13.82588 | 34138 ft | 415 kts | 305° |
| 2026-05-04 11:48 | 44.87255 | 13.76018 | 34135 ft | 415 kts | 305° |
| 2026-05-04 11:48 | 44.90659 | 13.69429 | 34133 ft | 416 kts | 305° |
| 2026-05-04 11:49 | 44.94065 | 13.62832 | 34127 ft | 416 kts | 305° |
| 2026-05-04 11:49 | 44.97470 | 13.56212 | 34125 ft | 417 kts | 305° |
| 2026-05-04 11:50 | 45.00868 | 13.49577 | 34120 ft | 417 kts | 304° |
| 2026-05-04 11:50 | 45.04249 | 13.42972 | 34115 ft | 418 kts | 304° |
| 2026-05-04 11:51 | 45.07650 | 13.36306 | 34113 ft | 418 kts | 304° |
| 2026-05-04 11:51 | 45.11057 | 13.29630 | 34112 ft | 419 kts | 304° |
| 2026-05-04 11:52 | 45.14463 | 13.22940 | 34111 ft | 419 kts | 304° |
| 2026-05-04 11:52 | 45.17864 | 13.16231 | 34112 ft | 419 kts | 304° |
| 2026-05-04 11:53 | 45.21266 | 13.09507 | 34107 ft | 420 kts | 304° |
| 2026-05-04 11:53 | 45.24665 | 13.02764 | 34107 ft | 420 kts | 304° |
| 2026-05-04 11:55 | 45.37050 | 12.74583 | 34109 ft | 421 kts | 300° |
| 2026-05-04 11:56 | 45.40110 | 12.67474 | 34105 ft | 421 kts | 300° |
| 2026-05-04 11:56 | 45.43177 | 12.60363 | 34110 ft | 422 kts | 300° |
| 2026-05-04 11:57 | 45.46234 | 12.53225 | 34109 ft | 422 kts | 300° |
| 2026-05-04 11:57 | 45.49278 | 12.46070 | 34110 ft | 422 kts | 300° |
| 2026-05-04 11:58 | 45.52320 | 12.38910 | 34112 ft | 422 kts | 300° |
| 2026-05-04 11:58 | 45.55362 | 12.31731 | 34115 ft | 423 kts | 300° |
| 2026-05-04 11:59 | 45.58401 | 12.24547 | 34113 ft | 423 kts | 300° |
| 2026-05-04 11:59 | 45.61415 | 12.17400 | 34111 ft | 423 kts | 299° |
| 2026-05-04 12:00 | 45.64449 | 12.10199 | 34111 ft | 423 kts | 299° |
| 2026-05-04 12:00 | 45.67484 | 12.02984 | 34103 ft | 423 kts | 299° |
| 2026-05-04 12:01 | 45.70509 | 11.95756 | 34106 ft | 424 kts | 299° |
| 2026-05-04 12:02 | 45.81078 | 11.70333 | 34112 ft | 426 kts | 298° |
| 2026-05-04 12:03 | 45.84102 | 11.63038 | 34115 ft | 425 kts | 298° |
| 2026-05-04 12:03 | 45.87119 | 11.55741 | 34123 ft | 426 kts | 298° |
| 2026-05-04 12:04 | 45.90129 | 11.48425 | 34132 ft | 426 kts | 298° |
| 2026-05-04 12:04 | 45.93132 | 11.41090 | 34127 ft | 426 kts | 298° |
| 2026-05-04 12:05 | 45.96136 | 11.33752 | 34125 ft | 426 kts | 298° |
| 2026-05-04 12:05 | 45.99139 | 11.26402 | 34138 ft | 426 kts | 298° |
| 2026-05-04 12:06 | 46.02140 | 11.19047 | 34153 ft | 426 kts | 298° |
| 2026-05-04 12:06 | 46.05134 | 11.11673 | 34170 ft | 427 kts | 298° |
| 2026-05-04 12:07 | 46.08122 | 11.04292 | 34187 ft | 427 kts | 298° |
| 2026-05-04 12:07 | 46.11107 | 10.96909 | 34198 ft | 427 kts | 298° |
| 2026-05-04 12:08 | 46.14066 | 10.89560 | 34194 ft | 427 kts | 298° |
| 2026-05-04 12:08 | 46.17046 | 10.82149 | 34191 ft | 427 kts | 298° |
| 2026-05-04 12:09 | 46.20020 | 10.74733 | 34173 ft | 427 kts | 297° |
| 2026-05-04 12:09 | 46.22988 | 10.67311 | 34167 ft | 427 kts | 297° |
| 2026-05-04 12:10 | 46.25959 | 10.59879 | 34152 ft | 427 kts | 297° |
| 2026-05-04 12:10 | 46.28918 | 10.52434 | 34150 ft | 427 kts | 297° |
| 2026-05-04 12:11 | 46.31871 | 10.44978 | 34156 ft | 427 kts | 297° |
| 2026-05-04 12:11 | 46.34820 | 10.37516 | 34156 ft | 427 kts | 297° |
| 2026-05-04 12:12 | 46.37761 | 10.30049 | 34153 ft | 427 kts | 297° |
| 2026-05-04 12:12 | 46.40700 | 10.22562 | 34162 ft | 427 kts | 297° |
| 2026-05-04 12:14 | 46.54093 | 9.94068 | 34164 ft | 432 kts | 308° |
| 2026-05-04 12:15 | 46.58074 | 9.87515 | 34165 ft | 433 kts | 308° |
| 2026-05-04 12:15 | 46.62052 | 9.80940 | 34168 ft | 433 kts | 308° |
| 2026-05-04 12:16 | 46.66022 | 9.74355 | 34155 ft | 433 kts | 308° |
| 2026-05-04 12:16 | 46.70000 | 9.67769 | 34137 ft | 433 kts | 308° |
| 2026-05-04 12:17 | 46.73967 | 9.61176 | 34116 ft | 432 kts | 308° |
| 2026-05-04 12:17 | 46.77922 | 9.54576 | 34084 ft | 432 kts | 308° |
| 2026-05-04 12:18 | 46.81845 | 9.48013 | 34061 ft | 432 kts | 308° |
| 2026-05-04 12:18 | 46.85817 | 9.41348 | 34054 ft | 432 kts | 308° |
| 2026-05-04 12:19 | 46.89757 | 9.34734 | 34032 ft | 431 kts | 308° |
| 2026-05-04 12:19 | 46.93687 | 9.28119 | 34021 ft | 431 kts | 308° |
| 2026-05-04 12:20 | 46.97581 | 9.21535 | 34017 ft | 431 kts | 308° |
| 2026-05-04 12:20 | 47.01499 | 9.14893 | 34015 ft | 430 kts | 308° |
| 2026-05-04 12:21 | 47.05407 | 9.08246 | 34012 ft | 430 kts | 308° |
| 2026-05-04 12:21 | 47.09321 | 9.01600 | 34010 ft | 430 kts | 308° |
| 2026-05-04 12:22 | 47.13226 | 8.94959 | 34009 ft | 430 kts | 307° |
| 2026-05-04 12:22 | 47.16448 | 8.87691 | 34011 ft | 422 kts | 290° |
| 2026-05-04 12:23 | 47.18524 | 8.79658 | 34006 ft | 420 kts | 287° |
| 2026-05-04 12:23 | 47.20567 | 8.71621 | 34009 ft | 420 kts | 287° |
| 2026-05-04 12:24 | 47.22614 | 8.63585 | 34011 ft | 419 kts | 287° |
| 2026-05-04 12:24 | 47.24645 | 8.55545 | 34013 ft | 419 kts | 287° |
| 2026-05-04 12:25 | 47.26658 | 8.47510 | 34014 ft | 418 kts | 287° |
| 2026-05-04 12:25 | 47.28675 | 8.39481 | 34018 ft | 418 kts | 287° |
| 2026-05-04 12:26 | 47.30691 | 8.31462 | 34004 ft | 417 kts | 287° |
| 2026-05-04 12:26 | 47.32693 | 8.23445 | 34007 ft | 417 kts | 286° |
| 2026-05-04 12:27 | 47.34689 | 8.15423 | 34011 ft | 416 kts | 286° |
| 2026-05-04 12:27 | 47.36665 | 8.07418 | 34018 ft | 415 kts | 286° |
| 2026-05-04 12:28 | 47.38636 | 7.99425 | 34025 ft | 414 kts | 286° |
| 2026-05-04 12:28 | 47.40600 | 7.91437 | 34024 ft | 414 kts | 285° |
| 2026-05-04 12:29 | 47.42226 | 7.84799 | 34020 ft | 413 kts | 285° |
| 2026-05-04 12:29 | 47.43525 | 7.79455 | 34020 ft | 413 kts | 285° |
| 2026-05-04 12:30 | 47.45458 | 7.71472 | 34014 ft | 412 kts | 285° |
| 2026-05-04 12:30 | 47.47187 | 7.63425 | 34016 ft | 409 kts | 279° |
| 2026-05-04 12:31 | 47.48563 | 7.55262 | 34013 ft | 409 kts | 279° |
| 2026-05-04 12:31 | 47.49922 | 7.47093 | 34007 ft | 409 kts | 279° |
| 2026-05-04 12:32 | 47.51738 | 7.36151 | 34006 ft | 410 kts | 279° |
| 2026-05-04 12:33 | 47.53092 | 7.27968 | 34006 ft | 409 kts | 279° |
| 2026-05-04 12:33 | 47.54441 | 7.19775 | 34009 ft | 410 kts | 279° |
| 2026-05-04 12:34 | 47.55777 | 7.11625 | 34016 ft | 410 kts | 278° |
| 2026-05-04 12:34 | 47.57105 | 7.03421 | 34018 ft | 410 kts | 278° |
| 2026-05-04 12:35 | 47.58437 | 6.95202 | 34025 ft | 410 kts | 278° |
| 2026-05-04 12:35 | 47.59766 | 6.86976 | 34025 ft | 411 kts | 278° |
| 2026-05-04 12:36 | 47.61087 | 6.78745 | 34024 ft | 411 kts | 278° |
| 2026-05-04 12:36 | 47.62399 | 6.70500 | 34021 ft | 411 kts | 278° |
| 2026-05-04 12:37 | 47.63710 | 6.62246 | 34022 ft | 411 kts | 278° |
| 2026-05-04 12:37 | 47.65015 | 6.53980 | 34030 ft | 412 kts | 278° |
| 2026-05-04 12:38 | 47.66318 | 6.45707 | 34022 ft | 412 kts | 277° |
| 2026-05-04 12:38 | 47.67615 | 6.37426 | 34024 ft | 412 kts | 277° |
| 2026-05-04 12:39 | 47.68903 | 6.29131 | 34022 ft | 413 kts | 278° |
| 2026-05-04 12:39 | 47.70512 | 6.20899 | 34022 ft | 417 kts | 282° |
| 2026-05-04 12:40 | 47.72352 | 6.12730 | 34027 ft | 417 kts | 283° |
| 2026-05-04 12:40 | 47.74165 | 6.04541 | 34022 ft | 417 kts | 282° |
| 2026-05-04 12:41 | 47.75902 | 5.96316 | 34023 ft | 417 kts | 281° |
| 2026-05-04 12:41 | 47.77617 | 5.88077 | 34021 ft | 418 kts | 281° |
| 2026-05-04 12:42 | 47.79336 | 5.79817 | 34020 ft | 418 kts | 281° |
| 2026-05-04 12:42 | 47.81059 | 5.71544 | 34014 ft | 419 kts | 281° |
| 2026-05-04 12:43 | 47.82786 | 5.63251 | 34013 ft | 420 kts | 281° |
| 2026-05-04 12:43 | 47.84499 | 5.54943 | 34011 ft | 421 kts | 281° |
| 2026-05-04 12:44 | 47.86200 | 5.46660 | 34004 ft | 421 kts | 281° |
| 2026-05-04 12:44 | 47.87905 | 5.38310 | 33998 ft | 422 kts | 281° |
| 2026-05-04 12:45 | 47.89622 | 5.29947 | 33996 ft | 424 kts | 283° |
| 2026-05-04 12:45 | 47.92424 | 5.22102 | 33991 ft | 438 kts | 302° |
| 2026-05-04 12:46 | 47.96524 | 5.15279 | 33984 ft | 442 kts | 307° |
| 2026-05-04 12:46 | 48.00662 | 5.08470 | 33976 ft | 443 kts | 307° |
| 2026-05-04 12:47 | 48.04789 | 5.01618 | 33986 ft | 443 kts | 306° |
| 2026-05-04 12:47 | 48.08912 | 4.94753 | 33984 ft | 444 kts | 306° |
| 2026-05-04 12:48 | 48.13041 | 4.87888 | 33984 ft | 444 kts | 306° |
| 2026-05-04 12:48 | 48.17175 | 4.81006 | 33986 ft | 444 kts | 306° |
| 2026-05-04 12:49 | 48.21302 | 4.74112 | 33984 ft | 444 kts | 306° |
| 2026-05-04 12:49 | 48.25426 | 4.67205 | 33975 ft | 444 kts | 306° |
| 2026-05-04 12:50 | 48.29543 | 4.60300 | 33982 ft | 444 kts | 306° |
| 2026-05-04 12:50 | 48.33663 | 4.53368 | 33984 ft | 444 kts | 306° |
| 2026-05-04 12:51 | 48.37767 | 4.46430 | 33986 ft | 444 kts | 306° |
| 2026-05-04 12:51 | 48.41868 | 4.39480 | 33992 ft | 444 kts | 306° |
| 2026-05-04 12:52 | 48.45969 | 4.32527 | 33995 ft | 444 kts | 306° |
| 2026-05-04 12:52 | 48.50068 | 4.25560 | 34000 ft | 444 kts | 306° |
| 2026-05-04 12:53 | 48.54155 | 4.18573 | 33996 ft | 444 kts | 306° |
| 2026-05-04 12:53 | 48.58237 | 4.11589 | 33998 ft | 444 kts | 306° |
| 2026-05-04 12:54 | 48.62320 | 4.04584 | 33995 ft | 444 kts | 306° |
| 2026-05-04 12:54 | 48.66398 | 3.97577 | 33993 ft | 444 kts | 306° |
| 2026-05-04 12:55 | 48.70473 | 3.90548 | 33994 ft | 444 kts | 306° |
| 2026-05-04 12:55 | 48.74620 | 3.83593 | 33987 ft | 446 kts | 309° |
| 2026-05-04 12:56 | 48.79070 | 3.76995 | 33982 ft | 448 kts | 311° |
| 2026-05-04 12:56 | 48.83606 | 3.70504 | 33975 ft | 448 kts | 311° |
| 2026-05-04 12:57 | 48.88088 | 3.63923 | 33972 ft | 448 kts | 310° |
| 2026-05-04 12:57 | 48.92510 | 3.57263 | 33970 ft | 448 kts | 310° |
| 2026-05-04 12:58 | 48.96927 | 3.50583 | 33973 ft | 448 kts | 310° |
| 2026-05-04 12:58 | 49.01355 | 3.43908 | 33972 ft | 448 kts | 310° |
| 2026-05-04 12:59 | 49.05780 | 3.37227 | 33976 ft | 448 kts | 310° |
| 2026-05-04 12:59 | 49.10199 | 3.30530 | 33975 ft | 448 kts | 310° |
| 2026-05-04 13:00 | 49.14618 | 3.23824 | 33977 ft | 448 kts | 310° |
| 2026-05-04 13:00 | 49.19004 | 3.17154 | 33972 ft | 448 kts | 310° |
| 2026-05-04 13:01 | 49.23416 | 3.10426 | 33968 ft | 448 kts | 310° |
| 2026-05-04 13:01 | 49.27850 | 3.03639 | 33967 ft | 448 kts | 310° |
| 2026-05-04 13:02 | 49.32222 | 2.96935 | 33976 ft | 448 kts | 310° |
| 2026-05-04 13:02 | 49.36616 | 2.90169 | 33974 ft | 448 kts | 310° |
| 2026-05-04 13:03 | 49.41012 | 2.83389 | 33979 ft | 448 kts | 310° |
| 2026-05-04 13:03 | 49.45405 | 2.76602 | 33984 ft | 448 kts | 310° |
| 2026-05-04 13:04 | 49.49795 | 2.69796 | 33982 ft | 448 kts | 310° |
| 2026-05-04 13:04 | 49.54176 | 2.62978 | 33981 ft | 448 kts | 310° |
| 2026-05-04 13:05 | 49.58553 | 2.56146 | 33979 ft | 448 kts | 310° |
| 2026-05-04 13:05 | 49.62835 | 2.49192 | 33976 ft | 446 kts | 306° |
| 2026-05-04 13:06 | 49.66835 | 2.41906 | 33981 ft | 445 kts | 304° |
| 2026-05-04 13:06 | 49.70756 | 2.34521 | 33985 ft | 445 kts | 304° |
| 2026-05-04 13:07 | 49.74724 | 2.27185 | 33973 ft | 445 kts | 305° |
| 2026-05-04 13:07 | 49.78724 | 2.19882 | 33981 ft | 445 kts | 305° |
| 2026-05-04 13:08 | 49.82731 | 2.12578 | 33984 ft | 445 kts | 305° |
| 2026-05-04 13:08 | 49.86712 | 2.05250 | 33990 ft | 444 kts | 305° |
| 2026-05-04 13:09 | 49.90670 | 1.97942 | 33562 ft | 438 kts | 305° |
| 2026-05-04 13:09 | 49.92622 | 1.94330 | 33010 ft | 435 kts | 305° |
| 2026-05-04 13:09 | 49.94561 | 1.90735 | 32505 ft | 432 kts | 306° |
| 2026-05-04 13:09 | 49.96483 | 1.87173 | 31995 ft | 429 kts | 306° |
| 2026-05-04 13:10 | 49.98394 | 1.83627 | 31488 ft | 427 kts | 306° |
| 2026-05-04 13:10 | 50.00291 | 1.80101 | 30987 ft | 424 kts | 306° |
| 2026-05-04 13:10 | 50.02174 | 1.76595 | 30504 ft | 421 kts | 306° |